sensor_id;sensor_type;location;lat;lon;timestamp;temperature;humidity
20442;DHT22;10380;52.102;20.614;2024-01-15T00:00:30;1.60;99.90
20442;DHT22;10380;52.102;20.614;2024-01-15T00:02:57;1.60;99.90
20442;DHT22;10380;52.102;20.614;2024-01-15T00:05:24;1.60;99.90
20442;DHT22;10380;52.102;20.614;2024-01-15T00:07:51;1.60;99.90
20442;DHT22;10380;52.102;20.614;2024-01-15T00:10:18;1.70;99.90
20442;DHT22;10380;52.102;20.614;2024-01-15T00:12:46;1.60;99.90
20442;DHT22;10380;52.102;20.614;2024-01-15T00:15:13;1.70;99.90
20442;DHT22;10380;52.102;20.614;2024-01-15T00:17:40;1.60;99.90
20442;DHT22;10380;52.102;20.614;2024-01-15T00:20:07;1.70;99.90
20442;DHT22;10380;52.102;20.614;2024-01-15T00:22:35;1.70;99.90
20442;DHT22;10380;52.102;20.614;2024-01-15T00:25:03;1.60;99.90
20442;DHT22;10380;52.102;20.614;2024-01-15T00:27:30;1.60;99.90
20442;DHT22;10380;52.102;20.614;2024-01-15T00:29:57;1.50;99.90
20442;DHT22;10380;52.102;20.614;2024-01-15T00:32:24;1.50;99.90
20442;DHT22;10380;52.102;20.614;2024-01-15T00:34:51;1.50;99.90
20442;DHT22;10380;52.102;20.614;2024-01-15T00:37:18;1.50;99.90
20442;DHT22;10380;52.102;20.614;2024-01-15T00:39:45;1.50;99.90
20442;DHT22;10380;52.102;20.614;2024-01-15T00:42:13;1.50;99.90
20442;DHT22;10380;52.102;20.614;2024-01-15T00:44:40;1.40;99.90
20442;DHT22;10380;52.102;20.614;2024-01-15T00:47:07;1.40;99.90
20442;DHT22;10380;52.102;20.614;2024-01-15T00:49:34;1.40;99.90
20442;DHT22;10380;52.102;20.614;2024-01-15T00:52:01;1.30;99.90
20442;DHT22;10380;52.102;20.614;2024-01-15T00:54:28;1.30;99.90
20442;DHT22;10380;52.102;20.614;2024-01-15T00:56:56;1.30;99.90
20442;DHT22;10380;52.102;20.614;2024-01-15T00:59:23;1.30;99.90
20442;DHT22;10380;52.102;20.614;2024-01-15T01:01:51;1.70;99.90
20442;DHT22;10380;52.102;20.614;2024-01-15T01:04:18;1.30;99.90
20442;DHT22;10380;52.102;20.614;2024-01-15T01:06:45;1.30;99.90
20442;DHT22;10380;52.102;20.614;2024-01-15T01:09:12;1.30;99.90
20442;DHT22;10380;52.102;20.614;2024-01-15T01:11:40;1.30;99.90
20442;DHT22;10380;52.102;20.614;2024-01-15T01:14:07;1.30;99.90
20442;DHT22;10380;52.102;20.614;2024-01-15T01:16:34;1.30;99.90
20442;DHT22;10380;52.102;20.614;2024-01-15T01:19:06;1.30;99.90
20442;DHT22;10380;52.102;20.614;2024-01-15T01:21:34;1.30;99.90
20442;DHT22;10380;52.102;20.614;2024-01-15T01:24:01;1.30;99.90
20442;DHT22;10380;52.102;20.614;2024-01-15T01:26:28;1.40;99.90
20442;DHT22;10380;52.102;20.614;2024-01-15T01:28:55;1.40;99.90
20442;DHT22;10380;52.102;20.614;2024-01-15T01:31:23;1.40;99.90
20442;DHT22;10380;52.102;20.614;2024-01-15T01:33:50;1.40;99.90
20442;DHT22;10380;52.102;20.614;2024-01-15T01:36:18;1.40;99.90
20442;DHT22;10380;52.102;20.614;2024-01-15T01:38:45;1.40;99.90
20442;DHT22;10380;52.102;20.614;2024-01-15T01:41:12;1.40;99.90
20442;DHT22;10380;52.102;20.614;2024-01-15T01:43:40;1.40;99.90
20442;DHT22;10380;52.102;20.614;2024-01-15T01:46:07;1.40;99.90
20442;DHT22;10380;52.102;20.614;2024-01-15T01:48:36;1.40;99.90
20442;DHT22;10380;52.102;20.614;2024-01-15T01:51:04;1.40;99.90
20442;DHT22;10380;52.102;20.614;2024-01-15T01:53:34;1.40;99.90
20442;DHT22;10380;52.102;20.614;2024-01-15T01:56:02;1.40;99.90
20442;DHT22;10380;52.102;20.614;2024-01-15T01:58:30;1.40;99.90
20442;DHT22;10380;52.102;20.614;2024-01-15T02:00:58;1.40;99.90
20442;DHT22;10380;52.102;20.614;2024-01-15T02:03:27;1.40;99.90
20442;DHT22;10380;52.102;20.614;2024-01-15T02:05:56;1.40;99.90
20442;DHT22;10380;52.102;20.614;2024-01-15T02:08:23;1.30;99.90
20442;DHT22;10380;52.102;20.614;2024-01-15T02:10:50;1.30;99.90
20442;DHT22;10380;52.102;20.614;2024-01-15T02:13:17;1.40;99.90
20442;DHT22;10380;52.102;20.614;2024-01-15T02:15:45;1.40;99.90
20442;DHT22;10380;52.102;20.614;2024-01-15T02:18:13;1.40;99.90
20442;DHT22;10380;52.102;20.614;2024-01-15T02:20:40;1.30;99.90
20442;DHT22;10380;52.102;20.614;2024-01-15T02:23:14;1.30;99.90
20442;DHT22;10380;52.102;20.614;2024-01-15T02:25:44;1.30;99.90
20442;DHT22;10380;52.102;20.614;2024-01-15T02:28:17;1.30;99.90
20442;DHT22;10380;52.102;20.614;2024-01-15T02:30:44;1.30;99.90
20442;DHT22;10380;52.102;20.614;2024-01-15T02:33:12;1.30;99.90
20442;DHT22;10380;52.102;20.614;2024-01-15T02:35:40;1.30;99.90
20442;DHT22;10380;52.102;20.614;2024-01-15T02:38:07;1.30;99.90
20442;DHT22;10380;52.102;20.614;2024-01-15T02:40:35;1.30;99.90
20442;DHT22;10380;52.102;20.614;2024-01-15T02:43:02;1.40;99.90
20442;DHT22;10380;52.102;20.614;2024-01-15T02:45:29;1.30;99.90
20442;DHT22;10380;52.102;20.614;2024-01-15T02:47:57;1.40;99.90
20442;DHT22;10380;52.102;20.614;2024-01-15T02:50:24;1.40;99.90
20442;DHT22;10380;52.102;20.614;2024-01-15T02:52:51;1.40;99.90
20442;DHT22;10380;52.102;20.614;2024-01-15T02:55:18;1.30;99.90
20442;DHT22;10380;52.102;20.614;2024-01-15T02:57:45;1.30;99.90
20442;DHT22;10380;52.102;20.614;2024-01-15T03:00:13;1.30;99.90
20442;DHT22;10380;52.102;20.614;2024-01-15T03:02:40;1.20;99.90
20442;DHT22;10380;52.102;20.614;2024-01-15T03:05:12;1.20;99.90
20442;DHT22;10380;52.102;20.614;2024-01-15T03:07:39;1.20;99.90
20442;DHT22;10380;52.102;20.614;2024-01-15T03:10:06;1.20;99.90
20442;DHT22;10380;52.102;20.614;2024-01-15T03:12:34;1.10;99.90
20442;DHT22;10380;52.102;20.614;2024-01-15T03:15:01;1.20;99.90
20442;DHT22;10380;52.102;20.614;2024-01-15T03:17:29;1.20;99.90
20442;DHT22;10380;52.102;20.614;2024-01-15T03:19:56;1.20;99.90
20442;DHT22;10380;52.102;20.614;2024-01-15T03:22:24;1.20;99.90
20442;DHT22;10380;52.102;20.614;2024-01-15T03:24:52;1.20;99.90
20442;DHT22;10380;52.102;20.614;2024-01-15T03:27:19;1.20;99.90
20442;DHT22;10380;52.102;20.614;2024-01-15T03:29:46;1.20;99.90
20442;DHT22;10380;52.102;20.614;2024-01-15T03:32:13;1.20;99.90
20442;DHT22;10380;52.102;20.614;2024-01-15T03:34:42;1.20;99.90
20442;DHT22;10380;52.102;20.614;2024-01-15T03:37:09;1.20;99.90
20442;DHT22;10380;52.102;20.614;2024-01-15T03:39:36;1.20;99.90
20442;DHT22;10380;52.102;20.614;2024-01-15T03:42:03;1.20;99.90
20442;DHT22;10380;52.102;20.614;2024-01-15T03:44:30;1.20;99.90
20442;DHT22;10380;52.102;20.614;2024-01-15T03:46:57;1.20;99.90
20442;DHT22;10380;52.102;20.614;2024-01-15T03:49:24;1.20;99.90
20442;DHT22;10380;52.102;20.614;2024-01-15T03:51:52;1.20;99.90
20442;DHT22;10380;52.102;20.614;2024-01-15T03:54:19;1.20;99.90
20442;DHT22;10380;52.102;20.614;2024-01-15T03:56:47;1.20;99.90
20442;DHT22;10380;52.102;20.614;2024-01-15T03:59:14;1.20;99.90
20442;DHT22;10380;52.102;20.614;2024-01-15T04:01:41;1.30;99.90
20442;DHT22;10380;52.102;20.614;2024-01-15T04:04:14;1.30;99.90
20442;DHT22;10380;52.102;20.614;2024-01-15T04:06:43;1.30;99.90
20442;DHT22;10380;52.102;20.614;2024-01-15T04:09:12;1.30;99.90
20442;DHT22;10380;52.102;20.614;2024-01-15T04:11:40;1.30;99.90
20442;DHT22;10380;52.102;20.614;2024-01-15T04:14:07;1.30;99.90
20442;DHT22;10380;52.102;20.614;2024-01-15T04:16:34;1.30;99.90
20442;DHT22;10380;52.102;20.614;2024-01-15T04:19:01;1.30;99.90
20442;DHT22;10380;52.102;20.614;2024-01-15T04:21:28;1.30;99.90
20442;DHT22;10380;52.102;20.614;2024-01-15T04:23:55;1.40;99.90
20442;DHT22;10380;52.102;20.614;2024-01-15T04:26:22;1.40;99.90
20442;DHT22;10380;52.102;20.614;2024-01-15T04:28:50;1.40;99.90
20442;DHT22;10380;52.102;20.614;2024-01-15T04:31:24;1.40;99.90
20442;DHT22;10380;52.102;20.614;2024-01-15T04:33:52;1.40;99.90
20442;DHT22;10380;52.102;20.614;2024-01-15T04:36:19;1.40;99.90
20442;DHT22;10380;52.102;20.614;2024-01-15T04:38:46;1.40;99.90
20442;DHT22;10380;52.102;20.614;2024-01-15T04:41:14;1.30;99.90
20442;DHT22;10380;52.102;20.614;2024-01-15T04:43:41;1.30;99.90
20442;DHT22;10380;52.102;20.614;2024-01-15T04:46:08;1.30;99.90
20442;DHT22;10380;52.102;20.614;2024-01-15T04:48:36;2.00;99.90
20442;DHT22;10380;52.102;20.614;2024-01-15T04:51:05;1.40;99.90
20442;DHT22;10380;52.102;20.614;2024-01-15T04:53:34;1.40;99.90
20442;DHT22;10380;52.102;20.614;2024-01-15T04:56:01;1.40;99.90
20442;DHT22;10380;52.102;20.614;2024-01-15T04:58:28;1.30;99.90
20442;DHT22;10380;52.102;20.614;2024-01-15T05:00:56;1.30;99.90
20442;DHT22;10380;52.102;20.614;2024-01-15T05:03:23;1.30;99.90
20442;DHT22;10380;52.102;20.614;2024-01-15T05:05:51;1.30;99.90
20442;DHT22;10380;52.102;20.614;2024-01-15T05:08:19;1.30;99.90
20442;DHT22;10380;52.102;20.614;2024-01-15T05:10:46;1.30;99.90
20442;DHT22;10380;52.102;20.614;2024-01-15T05:13:12;1.40;99.90
20442;DHT22;10380;52.102;20.614;2024-01-15T05:15:40;1.40;99.90
20442;DHT22;10380;52.102;20.614;2024-01-15T05:18:07;1.40;99.90
20442;DHT22;10380;52.102;20.614;2024-01-15T05:20:35;1.40;99.90
20442;DHT22;10380;52.102;20.614;2024-01-15T05:23:03;1.50;99.90
20442;DHT22;10380;52.102;20.614;2024-01-15T05:25:30;1.40;99.90
20442;DHT22;10380;52.102;20.614;2024-01-15T05:27:57;1.40;99.90
20442;DHT22;10380;52.102;20.614;2024-01-15T05:30:24;1.40;99.90
20442;DHT22;10380;52.102;20.614;2024-01-15T05:32:51;1.40;99.90
20442;DHT22;10380;52.102;20.614;2024-01-15T05:35:18;1.40;99.90
20442;DHT22;10380;52.102;20.614;2024-01-15T05:37:45;1.50;99.90
20442;DHT22;10380;52.102;20.614;2024-01-15T05:40:12;1.60;99.90
20442;DHT22;10380;52.102;20.614;2024-01-15T05:42:41;1.50;99.90
20442;DHT22;10380;52.102;20.614;2024-01-15T05:45:09;1.40;99.90
20442;DHT22;10380;52.102;20.614;2024-01-15T05:47:36;1.50;99.90
20442;DHT22;10380;52.102;20.614;2024-01-15T05:50:03;1.50;99.90
20442;DHT22;10380;52.102;20.614;2024-01-15T05:52:30;1.50;99.90
20442;DHT22;10380;52.102;20.614;2024-01-15T05:54:58;1.50;99.90
20442;DHT22;10380;52.102;20.614;2024-01-15T05:57:25;1.50;99.90
20442;DHT22;10380;52.102;20.614;2024-01-15T05:59:52;1.90;99.90
20442;DHT22;10380;52.102;20.614;2024-01-15T06:02:19;1.50;99.90
20442;DHT22;10380;52.102;20.614;2024-01-15T06:04:46;1.50;99.90
20442;DHT22;10380;52.102;20.614;2024-01-15T06:07:13;1.50;99.90
20442;DHT22;10380;52.102;20.614;2024-01-15T06:09:41;1.50;99.90
20442;DHT22;10380;52.102;20.614;2024-01-15T06:12:08;1.50;99.90
20442;DHT22;10380;52.102;20.614;2024-01-15T06:14:35;1.50;99.90
20442;DHT22;10380;52.102;20.614;2024-01-15T06:17:02;1.50;99.90
20442;DHT22;10380;52.102;20.614;2024-01-15T06:19:29;1.50;99.90
20442;DHT22;10380;52.102;20.614;2024-01-15T06:21:56;1.60;99.90
20442;DHT22;10380;52.102;20.614;2024-01-15T06:24:23;1.60;99.90
20442;DHT22;10380;52.102;20.614;2024-01-15T06:26:51;1.50;99.90
20442;DHT22;10380;52.102;20.614;2024-01-15T06:29:18;1.60;99.90
20442;DHT22;10380;52.102;20.614;2024-01-15T06:31:45;1.60;99.90
20442;DHT22;10380;52.102;20.614;2024-01-15T06:34:12;1.50;99.90
20442;DHT22;10380;52.102;20.614;2024-01-15T06:36:40;1.60;99.90
20442;DHT22;10380;52.102;20.614;2024-01-15T06:39:08;1.60;99.90
20442;DHT22;10380;52.102;20.614;2024-01-15T06:41:35;1.60;99.90
20442;DHT22;10380;52.102;20.614;2024-01-15T06:44:04;1.60;99.90
20442;DHT22;10380;52.102;20.614;2024-01-15T06:46:31;1.50;99.90
20442;DHT22;10380;52.102;20.614;2024-01-15T06:48:58;1.60;99.90
20442;DHT22;10380;52.102;20.614;2024-01-15T06:51:25;1.60;99.90
20442;DHT22;10380;52.102;20.614;2024-01-15T06:53:53;1.50;99.90
20442;DHT22;10380;52.102;20.614;2024-01-15T06:56:20;1.60;99.90
20442;DHT22;10380;52.102;20.614;2024-01-15T06:58:47;1.50;99.90
20442;DHT22;10380;52.102;20.614;2024-01-15T07:01:15;1.50;99.90
20442;DHT22;10380;52.102;20.614;2024-01-15T07:03:42;1.60;99.90
20442;DHT22;10380;52.102;20.614;2024-01-15T07:06:10;1.40;99.90
20442;DHT22;10380;52.102;20.614;2024-01-15T07:08:38;1.50;99.90
20442;DHT22;10380;52.102;20.614;2024-01-15T07:11:05;1.40;99.90
20442;DHT22;10380;52.102;20.614;2024-01-15T07:13:33;1.40;99.90
20442;DHT22;10380;52.102;20.614;2024-01-15T07:16:00;1.30;99.90
20442;DHT22;10380;52.102;20.614;2024-01-15T07:18:26;1.30;99.90
20442;DHT22;10380;52.102;20.614;2024-01-15T07:20:54;1.30;99.90
20442;DHT22;10380;52.102;20.614;2024-01-15T07:23:20;1.20;99.90
20442;DHT22;10380;52.102;20.614;2024-01-15T07:25:47;1.20;99.90
20442;DHT22;10380;52.102;20.614;2024-01-15T07:28:14;1.20;99.90
20442;DHT22;10380;52.102;20.614;2024-01-15T07:30:41;1.10;99.90
20442;DHT22;10380;52.102;20.614;2024-01-15T07:33:08;1.10;99.90
20442;DHT22;10380;52.102;20.614;2024-01-15T07:35:35;1.10;99.90
20442;DHT22;10380;52.102;20.614;2024-01-15T07:38:02;1.20;99.90
20442;DHT22;10380;52.102;20.614;2024-01-15T07:40:29;1.20;99.90
20442;DHT22;10380;52.102;20.614;2024-01-15T07:42:56;1.20;99.90
20442;DHT22;10380;52.102;20.614;2024-01-15T07:45:23;1.20;99.90
20442;DHT22;10380;52.102;20.614;2024-01-15T07:47:50;1.20;99.90
20442;DHT22;10380;52.102;20.614;2024-01-15T07:50:17;1.20;99.90
20442;DHT22;10380;52.102;20.614;2024-01-15T07:52:44;1.20;99.90
20442;DHT22;10380;52.102;20.614;2024-01-15T07:55:11;1.20;99.90
20442;DHT22;10380;52.102;20.614;2024-01-15T07:57:38;1.20;99.90
20442;DHT22;10380;52.102;20.614;2024-01-15T08:00:05;1.20;99.90
20442;DHT22;10380;52.102;20.614;2024-01-15T08:02:33;1.10;99.90
20442;DHT22;10380;52.102;20.614;2024-01-15T08:05:03;1.10;99.90
20442;DHT22;10380;52.102;20.614;2024-01-15T08:07:30;1.20;99.90
20442;DHT22;10380;52.102;20.614;2024-01-15T08:09:57;1.20;99.90
20442;DHT22;10380;52.102;20.614;2024-01-15T08:12:25;1.20;99.90
20442;DHT22;10380;52.102;20.614;2024-01-15T08:14:52;1.20;99.90
20442;DHT22;10380;52.102;20.614;2024-01-15T08:17:19;1.20;99.90
20442;DHT22;10380;52.102;20.614;2024-01-15T08:19:45;1.20;99.90
20442;DHT22;10380;52.102;20.614;2024-01-15T08:22:13;1.30;99.90
20442;DHT22;10380;52.102;20.614;2024-01-15T08:24:40;1.20;99.90
20442;DHT22;10380;52.102;20.614;2024-01-15T08:27:07;1.20;99.90
20442;DHT22;10380;52.102;20.614;2024-01-15T08:29:34;1.20;99.90
20442;DHT22;10380;52.102;20.614;2024-01-15T08:32:01;1.20;99.90
20442;DHT22;10380;52.102;20.614;2024-01-15T08:34:28;1.30;99.90
20442;DHT22;10380;52.102;20.614;2024-01-15T08:36:57;1.20;99.90
20442;DHT22;10380;52.102;20.614;2024-01-15T08:39:24;1.10;99.90
20442;DHT22;10380;52.102;20.614;2024-01-15T08:41:51;1.20;99.90
20442;DHT22;10380;52.102;20.614;2024-01-15T08:44:18;1.20;99.90
20442;DHT22;10380;52.102;20.614;2024-01-15T08:46:45;1.30;99.90
20442;DHT22;10380;52.102;20.614;2024-01-15T08:49:12;1.30;99.90
20442;DHT22;10380;52.102;20.614;2024-01-15T08:51:39;1.30;99.90
20442;DHT22;10380;52.102;20.614;2024-01-15T08:54:06;1.40;99.90
20442;DHT22;10380;52.102;20.614;2024-01-15T08:56:35;1.40;99.90
20442;DHT22;10380;52.102;20.614;2024-01-15T09:01:29;1.50;99.90
20442;DHT22;10380;52.102;20.614;2024-01-15T09:03:57;1.50;99.90
20442;DHT22;10380;52.102;20.614;2024-01-15T09:06:24;1.50;99.90
20442;DHT22;10380;52.102;20.614;2024-01-15T09:08:51;1.60;99.90
20442;DHT22;10380;52.102;20.614;2024-01-15T09:11:18;1.60;99.90
20442;DHT22;10380;52.102;20.614;2024-01-15T09:13:45;1.70;99.90
20442;DHT22;10380;52.102;20.614;2024-01-15T09:16:12;1.70;99.90
20442;DHT22;10380;52.102;20.614;2024-01-15T09:18:39;1.80;99.90
20442;DHT22;10380;52.102;20.614;2024-01-15T09:21:06;1.80;99.90
20442;DHT22;10380;52.102;20.614;2024-01-15T09:23:33;1.80;99.90
20442;DHT22;10380;52.102;20.614;2024-01-15T09:26:00;1.90;99.90
20442;DHT22;10380;52.102;20.614;2024-01-15T09:28:27;1.90;99.90
20442;DHT22;10380;52.102;20.614;2024-01-15T09:30:54;1.90;99.90
20442;DHT22;10380;52.102;20.614;2024-01-15T09:33:21;2.00;99.90
20442;DHT22;10380;52.102;20.614;2024-01-15T09:35:48;2.10;99.90
20442;DHT22;10380;52.102;20.614;2024-01-15T09:38:15;2.10;99.90
20442;DHT22;10380;52.102;20.614;2024-01-15T09:40:43;2.20;99.90
20442;DHT22;10380;52.102;20.614;2024-01-15T09:43:13;2.20;99.90
20442;DHT22;10380;52.102;20.614;2024-01-15T09:45:42;2.30;99.90
20442;DHT22;10380;52.102;20.614;2024-01-15T09:48:10;2.30;99.90
20442;DHT22;10380;52.102;20.614;2024-01-15T09:50:37;2.30;99.90
20442;DHT22;10380;52.102;20.614;2024-01-15T09:53:05;2.30;99.90
20442;DHT22;10380;52.102;20.614;2024-01-15T09:55:32;2.40;99.90
20442;DHT22;10380;52.102;20.614;2024-01-15T09:58:00;2.40;99.90
20442;DHT22;10380;52.102;20.614;2024-01-15T10:00:30;2.40;99.90
20442;DHT22;10380;52.102;20.614;2024-01-15T10:03:00;2.60;99.90
20442;DHT22;10380;52.102;20.614;2024-01-15T10:05:27;2.50;99.90
20442;DHT22;10380;52.102;20.614;2024-01-15T10:07:56;2.80;99.90
20442;DHT22;10380;52.102;20.614;2024-01-15T10:10:23;2.60;99.90
20442;DHT22;10380;52.102;20.614;2024-01-15T10:12:50;2.60;99.90
20442;DHT22;10380;52.102;20.614;2024-01-15T10:15:17;2.60;99.90
20442;DHT22;10380;52.102;20.614;2024-01-15T10:17:45;2.60;99.90
20442;DHT22;10380;52.102;20.614;2024-01-15T10:20:12;2.60;99.90
20442;DHT22;10380;52.102;20.614;2024-01-15T10:22:43;2.70;99.90
20442;DHT22;10380;52.102;20.614;2024-01-15T10:25:11;2.60;99.90
20442;DHT22;10380;52.102;20.614;2024-01-15T10:27:38;2.60;99.90
20442;DHT22;10380;52.102;20.614;2024-01-15T10:30:08;2.60;99.90
20442;DHT22;10380;52.102;20.614;2024-01-15T10:32:35;2.50;99.90
20442;DHT22;10380;52.102;20.614;2024-01-15T10:35:03;2.70;99.90
20442;DHT22;10380;52.102;20.614;2024-01-15T10:37:33;2.30;99.90
20442;DHT22;10380;52.102;20.614;2024-01-15T10:40:03;2.20;99.90
20442;DHT22;10380;52.102;20.614;2024-01-15T10:42:34;2.10;99.90
20442;DHT22;10380;52.102;20.614;2024-01-15T10:45:01;2.10;99.90
20442;DHT22;10380;52.102;20.614;2024-01-15T10:47:28;2.10;99.90
20442;DHT22;10380;52.102;20.614;2024-01-15T10:49:55;2.10;99.90
20442;DHT22;10380;52.102;20.614;2024-01-15T10:52:23;2.20;99.90
20442;DHT22;10380;52.102;20.614;2024-01-15T10:54:50;2.20;99.90
20442;DHT22;10380;52.102;20.614;2024-01-15T10:57:18;2.30;99.90
20442;DHT22;10380;52.102;20.614;2024-01-15T10:59:47;2.30;99.90
20442;DHT22;10380;52.102;20.614;2024-01-15T11:02:14;2.40;99.90
20442;DHT22;10380;52.102;20.614;2024-01-15T11:04:42;2.40;99.90
20442;DHT22;10380;52.102;20.614;2024-01-15T11:07:10;2.50;99.90
20442;DHT22;10380;52.102;20.614;2024-01-15T11:09:38;2.50;99.90
20442;DHT22;10380;52.102;20.614;2024-01-15T11:12:13;2.40;99.90
20442;DHT22;10380;52.102;20.614;2024-01-15T11:14:42;2.50;99.90
20442;DHT22;10380;52.102;20.614;2024-01-15T11:17:12;2.50;99.90
20442;DHT22;10380;52.102;20.614;2024-01-15T11:19:46;2.60;99.90
20442;DHT22;10380;52.102;20.614;2024-01-15T11:24:56;2.50;99.90
20442;DHT22;10380;52.102;20.614;2024-01-15T11:27:43;2.50;99.90
20442;DHT22;10380;52.102;20.614;2024-01-15T11:30:14;2.40;99.90
20442;DHT22;10380;52.102;20.614;2024-01-15T11:32:41;2.30;99.90
20442;DHT22;10380;52.102;20.614;2024-01-15T11:35:10;2.20;99.90
20442;DHT22;10380;52.102;20.614;2024-01-15T11:40:23;2.10;99.90
20442;DHT22;10380;52.102;20.614;2024-01-15T11:42:49;2.10;99.90
20442;DHT22;10380;52.102;20.614;2024-01-15T11:45:19;2.10;99.90
20442;DHT22;10380;52.102;20.614;2024-01-15T11:50:30;2.00;99.90
20442;DHT22;10380;52.102;20.614;2024-01-15T11:55:51;2.00;99.90
20442;DHT22;10380;52.102;20.614;2024-01-15T11:58:20;1.90;99.90
20442;DHT22;10380;52.102;20.614;2024-01-15T12:00:48;1.80;99.90
20442;DHT22;10380;52.102;20.614;2024-01-15T12:03:23;1.80;99.90
20442;DHT22;10380;52.102;20.614;2024-01-15T12:05:52;1.70;99.90
20442;DHT22;10380;52.102;20.614;2024-01-15T12:08:23;1.70;99.90
20442;DHT22;10380;52.102;20.614;2024-01-15T12:10:50;1.60;99.90
20442;DHT22;10380;52.102;20.614;2024-01-15T12:13:18;1.60;99.90
20442;DHT22;10380;52.102;20.614;2024-01-15T12:15:46;1.60;99.90
20442;DHT22;10380;52.102;20.614;2024-01-15T12:18:15;1.60;99.90
20442;DHT22;10380;52.102;20.614;2024-01-15T12:20:43;1.60;99.90
20442;DHT22;10380;52.102;20.614;2024-01-15T12:23:11;1.60;99.90
20442;DHT22;10380;52.102;20.614;2024-01-15T12:25:39;1.30;99.90
20442;DHT22;10380;52.102;20.614;2024-01-15T12:28:06;1.50;99.90
20442;DHT22;10380;52.102;20.614;2024-01-15T12:30:34;1.50;99.90
20442;DHT22;10380;52.102;20.614;2024-01-15T12:33:03;1.50;99.90
20442;DHT22;10380;52.102;20.614;2024-01-15T12:35:31;1.50;99.90
20442;DHT22;10380;52.102;20.614;2024-01-15T12:38:00;1.50;99.90
20442;DHT22;10380;52.102;20.614;2024-01-15T12:40:29;1.60;99.90
20442;DHT22;10380;52.102;20.614;2024-01-15T12:42:56;1.60;99.90
20442;DHT22;10380;52.102;20.614;2024-01-15T12:45:24;1.60;99.90
20442;DHT22;10380;52.102;20.614;2024-01-15T12:47:51;1.60;99.90
20442;DHT22;10380;52.102;20.614;2024-01-15T12:50:18;1.50;99.90
20442;DHT22;10380;52.102;20.614;2024-01-15T12:52:47;1.50;99.90
20442;DHT22;10380;52.102;20.614;2024-01-15T12:55:14;1.40;99.90
20442;DHT22;10380;52.102;20.614;2024-01-15T12:57:42;1.40;99.90
20442;DHT22;10380;52.102;20.614;2024-01-15T13:00:09;1.30;99.90
20442;DHT22;10380;52.102;20.614;2024-01-15T13:02:41;1.30;99.90
20442;DHT22;10380;52.102;20.614;2024-01-15T13:05:09;1.20;99.90
20442;DHT22;10380;52.102;20.614;2024-01-15T13:07:38;1.20;99.90
20442;DHT22;10380;52.102;20.614;2024-01-15T13:10:06;1.30;99.90
20442;DHT22;10380;52.102;20.614;2024-01-15T13:12:34;1.20;99.90
20442;DHT22;10380;52.102;20.614;2024-01-15T13:15:01;1.20;99.90
20442;DHT22;10380;52.102;20.614;2024-01-15T13:17:30;1.20;99.90
20442;DHT22;10380;52.102;20.614;2024-01-15T13:19:57;1.40;99.90
20442;DHT22;10380;52.102;20.614;2024-01-15T13:22:25;1.20;99.90
20442;DHT22;10380;52.102;20.614;2024-01-15T13:24:57;1.20;99.90
20442;DHT22;10380;52.102;20.614;2024-01-15T13:27:24;1.20;99.90
20442;DHT22;10380;52.102;20.614;2024-01-15T13:29:51;1.30;99.90
20442;DHT22;10380;52.102;20.614;2024-01-15T13:32:26;1.30;99.90
20442;DHT22;10380;52.102;20.614;2024-01-15T13:34:56;1.30;99.90
20442;DHT22;10380;52.102;20.614;2024-01-15T13:37:25;1.30;99.90
20442;DHT22;10380;52.102;20.614;2024-01-15T13:39:52;1.30;99.90
20442;DHT22;10380;52.102;20.614;2024-01-15T13:42:20;1.30;99.90
20442;DHT22;10380;52.102;20.614;2024-01-15T13:44:49;1.30;99.90
20442;DHT22;10380;52.102;20.614;2024-01-15T13:47:16;1.30;99.90
20442;DHT22;10380;52.102;20.614;2024-01-15T13:49:43;1.30;99.90
20442;DHT22;10380;52.102;20.614;2024-01-15T13:52:10;1.30;99.90
20442;DHT22;10380;52.102;20.614;2024-01-15T13:54:37;1.50;99.90
20442;DHT22;10380;52.102;20.614;2024-01-15T13:57:16;1.30;99.90
20442;DHT22;10380;52.102;20.614;2024-01-15T13:59:43;1.30;99.90
20442;DHT22;10380;52.102;20.614;2024-01-15T14:02:10;1.30;99.90
20442;DHT22;10380;52.102;20.614;2024-01-15T14:04:40;1.30;99.90
20442;DHT22;10380;52.102;20.614;2024-01-15T14:07:08;1.30;99.90
20442;DHT22;10380;52.102;20.614;2024-01-15T14:09:35;1.30;99.90
20442;DHT22;10380;52.102;20.614;2024-01-15T14:12:04;1.30;99.90
20442;DHT22;10380;52.102;20.614;2024-01-15T14:14:33;1.30;99.90
20442;DHT22;10380;52.102;20.614;2024-01-15T14:17:00;1.30;99.90
20442;DHT22;10380;52.102;20.614;2024-01-15T14:19:27;1.30;99.90
20442;DHT22;10380;52.102;20.614;2024-01-15T14:21:54;1.30;99.90
20442;DHT22;10380;52.102;20.614;2024-01-15T14:24:22;1.30;99.90
20442;DHT22;10380;52.102;20.614;2024-01-15T14:26:49;1.30;99.90
20442;DHT22;10380;52.102;20.614;2024-01-15T14:29:16;1.30;99.90
20442;DHT22;10380;52.102;20.614;2024-01-15T14:31:45;1.30;99.90
20442;DHT22;10380;52.102;20.614;2024-01-15T14:34:13;1.40;99.90
20442;DHT22;10380;52.102;20.614;2024-01-15T14:36:40;1.30;99.90
20442;DHT22;10380;52.102;20.614;2024-01-15T14:39:08;1.30;99.90
20442;DHT22;10380;52.102;20.614;2024-01-15T14:41:36;1.30;99.90
20442;DHT22;10380;52.102;20.614;2024-01-15T14:44:03;1.30;99.90
20442;DHT22;10380;52.102;20.614;2024-01-15T14:46:30;1.40;99.90
20442;DHT22;10380;52.102;20.614;2024-01-15T14:48:57;1.30;99.90
20442;DHT22;10380;52.102;20.614;2024-01-15T14:51:25;1.40;99.90
20442;DHT22;10380;52.102;20.614;2024-01-15T14:53:53;1.40;99.90
20442;DHT22;10380;52.102;20.614;2024-01-15T14:56:20;1.30;99.90
20442;DHT22;10380;52.102;20.614;2024-01-15T14:58:47;1.30;99.90
20442;DHT22;10380;52.102;20.614;2024-01-15T15:01:15;1.40;99.90
20442;DHT22;10380;52.102;20.614;2024-01-15T15:03:42;1.30;99.90
20442;DHT22;10380;52.102;20.614;2024-01-15T15:06:11;1.30;99.90
20442;DHT22;10380;52.102;20.614;2024-01-15T15:08:42;1.70;99.90
20442;DHT22;10380;52.102;20.614;2024-01-15T15:11:09;1.30;99.90
20442;DHT22;10380;52.102;20.614;2024-01-15T15:13:37;1.30;99.90
20442;DHT22;10380;52.102;20.614;2024-01-15T15:16:12;1.50;99.90
20442;DHT22;10380;52.102;20.614;2024-01-15T15:18:41;1.30;99.90
20442;DHT22;10380;52.102;20.614;2024-01-15T15:21:10;1.30;99.90
20442;DHT22;10380;52.102;20.614;2024-01-15T15:23:38;1.30;99.90
20442;DHT22;10380;52.102;20.614;2024-01-15T15:26:09;1.30;99.90
20442;DHT22;10380;52.102;20.614;2024-01-15T15:28:36;1.30;99.90
20442;DHT22;10380;52.102;20.614;2024-01-15T15:31:04;1.30;99.90
20442;DHT22;10380;52.102;20.614;2024-01-15T15:33:31;1.40;99.90
20442;DHT22;10380;52.102;20.614;2024-01-15T15:35:59;1.20;99.90
20442;DHT22;10380;52.102;20.614;2024-01-15T15:38:31;1.20;99.90
20442;DHT22;10380;52.102;20.614;2024-01-15T15:40:58;1.20;99.90
20442;DHT22;10380;52.102;20.614;2024-01-15T15:43:29;1.20;99.90
20442;DHT22;10380;52.102;20.614;2024-01-15T15:45:57;1.20;99.90